^^
Meteo Knjazevac Station Historical Data
Daily Summary for January 12, 2022 Units:  Metric    English   Both
Daily Weekly Monthly Yearly Custom
  High: Low: Average:
Temperature: 30.9 °C 12.9 °C 21.8 °C
Dew Point: 20.7 °C 12.7 °C 16.7 °C
Humidity: 99% 47.9% 77%
Wind Speed: 18.8km/h 0km/h 6km/h
Wind Gust: 20.9km/h - -
Wind- - South
Pressure: 1018.8 hPa 1014.4 hPa -
Precipitation: 0 mm    
Historical Graphs
 
 
Tabular Data for January 12, 2022
Time Temperature Dew Point Pressure Wind Wind Speed Wind Gust Humidity Rainfall Rate (Hourly) solar Conditions
00:04 16.6 °C 15.8 °C 1018.5 hPa WSW 1.6 km/h 3.2 km/h 95% 0 mm 0 W/m2
00:09 16.6 °C 15.8 °C 1018.5 hPa Calm   3.2 km/h 95% 0 mm 0 W/m2
00:14 16.5 °C 15.7 °C 1018.5 hPa Calm     95% 0 mm 0 W/m2
00:19 16.4 °C 15.7 °C 1018.5 hPa North 0.5 km/h   95% 0 mm 0 W/m2
00:22 16.4 °C 15.7 °C 1018.5 hPa Calm   1.6 km/h 95.6% 0 mm 0 W/m2
00:28 16.3 °C 15.7 °C 1018.5 hPa West 1.1 km/h 0.3 km/h 96% 0 mm 0 W/m2
00:33 16.2 °C 15.5 °C 1018.5 hPa Calm     96% 0 mm 0 W/m2
00:39 16.1 °C 15.6 °C 1018.5 hPa Calm     96.8% 0 mm 0 W/m2
00:44 16.1 °C 15.6 °C 1018.5 hPa Calm     97.1% 0 mm 0 W/m2
00:49 16 °C 15.7 °C 1018.5 hPa Calm     98% 0 mm 0 W/m2
00:54 15.9 °C 15.6 °C 1018.5 hPa NW 1.4 km/h 1.1 km/h 98% 0 mm 0 W/m2
00:59 15.9 °C 15.6 °C 1018.5 hPa NNW 1 km/h 3.2 km/h 98% 0 mm 0 W/m2
01:04 15.8 °C 15.5 °C 1018.5 hPa Calm   1.6 km/h 98% 0 mm 0 W/m2
01:09 15.7 °C 15.4 °C 1018.5 hPa Calm     98% 0 mm 0 W/m2
01:14 15.7 °C 15.3 °C 1018.5 hPa North 0.8 km/h 0.3 km/h 98% 0 mm 0 W/m2
01:18 15.6 °C 15.3 °C 1018.5 hPa NNW 2.6 km/h 2.1 km/h 98% 0 mm 0 W/m2
01:24 15.6 °C 15.2 °C 1018.5 hPa West 2.7 km/h 3.2 km/h 98% 0 mm 0 W/m2
01:29 15.5 °C 15.2 °C 1018.5 hPa SW 1.1 km/h 3.2 km/h 98% 0 mm 0 W/m2
01:34 15.4 °C 15.2 °C 1018.5 hPa West 0.6 km/h 1.6 km/h 98.3% 0 mm 0 W/m2
01:39 15.4 °C 15.2 °C 1018.5 hPa West 2.4 km/h 1.6 km/h 98.8% 0 mm 0 W/m2
01:44 15.3 °C 15.1 °C 1018.5 hPa WSW 3.5 km/h 3.2 km/h 98.3% 0 mm 0 W/m2
01:48 15.3 °C 15.2 °C 1018.5 hPa NNE 3.2 km/h 3.2 km/h 99% 0 mm 0 W/m2
01:54 15.3 °C 15.2 °C 1018.5 hPa East 3.9 km/h 4.8 km/h 99% 0 mm 0 W/m2
01:59 15.2 °C 15.1 °C 1018.5 hPa SSE 1.4 km/h 3.2 km/h 99% 0 mm 0 W/m2
02:04 15.2 °C 15.1 °C 1018.5 hPa Calm     99% 0 mm 0 W/m2
02:09 15.2 °C 15 °C 1018.5 hPa SW 1.3 km/h 1.1 km/h 98.8% 0 mm 0 W/m2
02:14 15.1 °C 14.7 °C 1018.5 hPa Calm   1.6 km/h 98% 0 mm 0 W/m2
02:18 14.9 °C 14.7 °C 1018.8 hPa SW 0.8 km/h 1.1 km/h 98.7% 0 mm 0 W/m2
02:24 14.8 °C 14.7 °C 1018.5 hPa WSW 2.4 km/h 3.2 km/h 99% 0 mm 0 W/m2
02:29 14.8 °C 14.7 °C 1018.8 hPa WSW 2.3 km/h 3.2 km/h 99% 0 mm 0 W/m2
02:34 14.7 °C 14.6 °C 1018.8 hPa West 2.1 km/h 3.2 km/h 99% 0 mm 0 W/m2
02:39 14.7 °C 14.5 °C 1018.8 hPa WNW 1.8 km/h 3.2 km/h 99% 0 mm 0 W/m2
02:44 14.6 °C 14.4 °C 1018.8 hPa NW 1 km/h 1.6 km/h 99% 0 mm 0 W/m2
02:49 14.6 °C 14.4 °C 1018.8 hPa NW 2.3 km/h 2.1 km/h 99% 0 mm 0 W/m2
02:54 14.5 °C 14.3 °C 1018.8 hPa WNW 1.3 km/h 3.2 km/h 99% 0 mm 0 W/m2
02:59 14.4 °C 14.2 °C 1018.8 hPa WNW 1.8 km/h 1.1 km/h 99% 0 mm 0 W/m2
03:04 14.3 °C 14.2 °C 1018.8 hPa WNW 2.6 km/h 2.1 km/h 99% 0 mm 0 W/m2
03:09 14.3 °C 14.2 °C 1018.8 hPa West 0.6 km/h 3.2 km/h 99% 0 mm 0 W/m2
03:14 14.2 °C 14.1 °C 1018.8 hPa Calm     99% 0 mm 0 W/m2
03:19 14.2 °C 14.1 °C 1018.8 hPa Calm     99% 0 mm 0 W/m2
03:24 14.1 °C 13.9 °C 1018.8 hPa WSW 1.3 km/h 0.3 km/h 99% 0 mm 0 W/m2
03:29 14.1 °C 13.9 °C 1018.8 hPa WSW 0.6 km/h 1.6 km/h 99% 0 mm 0 W/m2
03:34 14 °C 13.8 °C 1018.8 hPa West 1.8 km/h 1.8 km/h 99% 0 mm 0 W/m2
03:39 13.9 °C 13.7 °C 1018.8 hPa WNW 1.8 km/h 1.6 km/h 99% 0 mm 0 W/m2
03:44 13.9 °C 13.7 °C 1018.8 hPa WNW 2.1 km/h 1.8 km/h 99% 0 mm 0 W/m2
03:49 13.8 °C 13.7 °C 1018.8 hPa NW 1.6 km/h 3.2 km/h 99% 0 mm 0 W/m2
03:53 13.8 °C 13.7 °C 1018.8 hPa NNW 2.3 km/h 1.1 km/h 99% 0 mm 0 W/m2
03:59 13.8 °C 13.7 °C 1018.8 hPa NW 1.8 km/h 3.2 km/h 99% 0 mm 0 W/m2
04:04 13.8 °C 13.7 °C 1018.8 hPa WNW 2.4 km/h 2.1 km/h 99% 0 mm 0 W/m2
04:09 13.8 °C 13.7 °C 1018.5 hPa WNW 3.2 km/h 3.2 km/h 99% 0 mm 0 W/m2
04:14 13.8 °C 13.7 °C 1018.5 hPa NW 2.7 km/h 3.2 km/h 99% 0 mm 0 W/m2
04:19 13.8 °C 13.7 °C 1018.5 hPa NNW 3.1 km/h 3.2 km/h 99% 0 mm 0 W/m2
04:24 13.8 °C 13.7 °C 1018.5 hPa North 1.8 km/h 3.2 km/h 99% 0 mm 0 W/m2
04:29 13.8 °C 13.7 °C 1018.5 hPa NNW 3.5 km/h 3.2 km/h 99% 0 mm 0 W/m2
04:34 13.8 °C 13.6 °C 1018.5 hPa West 0.6 km/h 3.2 km/h 99% 0 mm 0 W/m2
04:39 13.7 °C 13.6 °C 1018.5 hPa WNW 0.8 km/h 1.6 km/h 99% 0 mm 0 W/m2
04:44 13.6 °C 13.4 °C 1018.5 hPa WNW 1.4 km/h 2.1 km/h 99% 0 mm 0 W/m2
04:49 13.6 °C 13.4 °C 1018.5 hPa NW 2.7 km/h 3.2 km/h 99% 0 mm 0 W/m2
04:54 13.6 °C 13.4 °C 1018.5 hPa Calm     99% 0 mm 0 W/m2
04:59 13.6 °C 13.4 °C 1018.5 hPa Calm     99% 0 mm 0 W/m2
05:04 13.5 °C 13.3 °C 1018.5 hPa North 0.5 km/h 0.3 km/h 99% 0 mm 0 W/m2
05:09 13.5 °C 13.3 °C 1018.5 hPa North 0.5 km/h 1.6 km/h 99% 0 mm 0 W/m2
05:14 13.5 °C 13.3 °C 1018.5 hPa Calm     99% 0 mm 0 W/m2
05:19 13.4 °C 13.2 °C 1018.5 hPa Calm     99% 0 mm 0 W/m2
05:24 13.3 °C 13.2 °C 1018.5 hPa Calm     99% 0 mm 1 W/m2
05:29 13.3 °C 13.1 °C 1018.5 hPa Calm     99% 0 mm 3 W/m2
05:34 13.2 °C 13.1 °C 1018.5 hPa Calm     99% 0 mm 5 W/m2
05:39 13.2 °C 13.1 °C 1018.5 hPa North 0.6 km/h 0.6 km/h 99% 0 mm 8 W/m2
05:44 13.1 °C 12.9 °C 1018.5 hPa NNW 1.8 km/h 1.8 km/h 99% 0 mm 10 W/m2
05:49 13.1 °C 12.9 °C 1018.5 hPa NNW 1.8 km/h 1.6 km/h 99% 0 mm 16 W/m2
05:54 13.1 °C 12.9 °C 1018.5 hPa North 0.6 km/h 1.4 km/h 99% 0 mm 22 W/m2
05:59 13.1 °C 12.9 °C 1018.5 hPa NNW 1.8 km/h 1.6 km/h 99% 0 mm 26 W/m2
06:04 13 °C 12.8 °C 1018.8 hPa WNW 0.8 km/h 1.6 km/h 99% 0 mm 34 W/m2
06:09 12.9 °C 12.7 °C 1018.8 hPa Calm   1.6 km/h 99% 0 mm 40 W/m2
06:14 12.9 °C 12.7 °C 1018.8 hPa Calm     99% 0 mm 42 W/m2
06:19 13 °C 12.8 °C 1018.8 hPa Calm     99% 0 mm 57 W/m2
06:24 13.1 °C 12.9 °C 1018.8 hPa Calm     99% 0 mm 70 W/m2
06:29 13.1 °C 12.9 °C 1018.8 hPa North 0.6 km/h 0.3 km/h 99% 0 mm 71 W/m2
06:34 13.2 °C 13.1 °C 1018.8 hPa NNW 1.1 km/h 1.6 km/h 99% 0 mm 76 W/m2
06:39 13.3 °C 13.1 °C 1018.8 hPa NNW 1.1 km/h 1.6 km/h 99% 0 mm 90 W/m2
06:44 13.3 °C 13.2 °C 1018.8 hPa North 1.3 km/h 1.6 km/h 99% 0 mm 112 W/m2
06:49 13.4 °C 13.2 °C 1018.8 hPa Calm   3.2 km/h 99% 0 mm 137 W/m2
06:54 13.6 °C 13.4 °C 1018.8 hPa NNW 1.6 km/h 1.1 km/h 99% 0 mm 154 W/m2
06:59 13.7 °C 13.5 °C 1018.8 hPa WNW 1.6 km/h 1.6 km/h 99% 0 mm 162 W/m2
07:04 13.8 °C 13.7 °C 1018.8 hPa West 0.8 km/h 1.6 km/h 99% 0 mm 173 W/m2
07:09 13.8 °C 13.7 °C 1018.8 hPa WSW 0.8 km/h 1.6 km/h 99% 0 mm 191 W/m2
07:14 14.1 °C 13.9 °C 1018.8 hPa WSW 2.4 km/h 2.6 km/h 99% 0 mm 201 W/m2
07:19 14.2 °C 14 °C 1018.8 hPa WSW 3.5 km/h 3.2 km/h 99% 0 mm 200 W/m2
07:24 14.3 °C 14.1 °C 1018.8 hPa West 1.8 km/h 3.2 km/h 99% 0 mm 161 W/m2
07:28 14.4 °C 14.2 °C 1018.8 hPa WNW 1.9 km/h 1.6 km/h 99% 0 mm 143 W/m2
07:34 14.6 °C 14.3 °C 1018.8 hPa NW 3.4 km/h 3.2 km/h 99% 0 mm 137 W/m2
07:39 14.7 °C 14.5 °C 1018.8 hPa NW 0.6 km/h 3.2 km/h 99% 0 mm 162 W/m2
07:44 14.8 °C 14.7 °C 1018.8 hPa NW 2.4 km/h 1.8 km/h 99% 0 mm 189 W/m2
07:49 15 °C 14.8 °C 1018.8 hPa WSW 2.9 km/h 3.2 km/h 99% 0 mm 201 W/m2
07:54 15.2 °C 15.1 °C 1018.8 hPa SSW 3.2 km/h 3.2 km/h 99% 0 mm 233 W/m2
07:59 15.4 °C 15.2 °C 1018.8 hPa SW 3.4 km/h 3.2 km/h 99% 0 mm 273 W/m2
08:04 15.5 °C 15.3 °C 1018.8 hPa SW 3.5 km/h 3.2 km/h 99% 0 mm 280 W/m2
08:09 15.7 °C 15.5 °C 1018.8 hPa WSW 3.2 km/h 3.2 km/h 99% 0 mm 301 W/m2
08:14 15.8 °C 15.7 °C 1018.8 hPa West 2.9 km/h 3.2 km/h 99% 0 mm 311 W/m2
08:19 16.1 °C 15.9 °C 1018.8 hPa WSW 3.4 km/h 3.2 km/h 99% 0 mm 298 W/m2
08:24 16.3 °C 16.1 °C 1018.8 hPa SW 2.4 km/h 3.2 km/h 99% 0 mm 294 W/m2
08:29 16.6 °C 16.3 °C 1018.8 hPa SW 1.9 km/h 3.2 km/h 98.8% 0 mm 318 W/m2
08:34 16.9 °C 16.4 °C 1018.8 hPa SW 1.8 km/h 1.6 km/h 97% 0 mm 351 W/m2
08:39 17.3 °C 16.7 °C 1018.8 hPa West 2.7 km/h 2.1 km/h 95.9% 0 mm 406 W/m2
08:42 17.8 °C 16.9 °C 1018.8 hPa SW 2.4 km/h 3.2 km/h 95% 0 mm 406 W/m2
08:49 18.2 °C 17.1 °C 1018.8 hPa SSW 4.3 km/h 3.5 km/h 93.4% 0 mm 399 W/m2
08:54 18.3 °C 16.9 °C 1018.8 hPa South 2.7 km/h 4.8 km/h 91.5% 0 mm 469 W/m2
08:59 18.6 °C 17.1 °C 1018.8 hPa WSW 3.1 km/h 3.2 km/h 91% 0 mm 469 W/m2
09:04 19 °C 17.4 °C 1018.8 hPa SW 3.2 km/h 3.2 km/h 90.5% 0 mm 416 W/m2
09:09 19.4 °C 17.6 °C 1018.8 hPa SW 2.7 km/h 3.2 km/h 89.5% 0 mm 451 W/m2
09:14 19.7 °C 17.7 °C 1018.8 hPa West 3.7 km/h 4.8 km/h 88.1% 0 mm 527 W/m2
09:19 20.2 °C 17.8 °C 1018.8 hPa SW 3.9 km/h 2.9 km/h 86% 0 mm 607 W/m2
09:24 20.7 °C 18.1 °C 1018.8 hPa South 7.1 km/h 5.5 km/h 84.7% 0 mm 607 W/m2
09:29 20.8 °C 18.2 °C 1018.5 hPa SSE 7.2 km/h 8 km/h 84.9% 0 mm 541 W/m2
09:34 21 °C 18.2 °C 1018.5 hPa SSE 4.8 km/h 8 km/h 84% 0 mm 503 W/m2
09:38 21.2 °C 18.3 °C 1018.5 hPa SSW 4.8 km/h 6.4 km/h 83.7% 0 mm 503 W/m2
09:44 21.3 °C 18.5 °C 1018.5 hPa SSW 5.5 km/h 4.8 km/h 84.2% 0 mm 568 W/m2
09:49 21.5 °C 18.4 °C 1018.5 hPa SW 6.3 km/h 8 km/h 82.4% 0 mm 672 W/m2
09:54 21.8 °C 18.6 °C 1018.5 hPa North 10 km/h 8 km/h 82.3% 0 mm 700 W/m2
09:59 22.1 °C 18.6 °C 1018.5 hPa NE 5.5 km/h 11.3 km/h 80.6% 0 mm 664 W/m2
10:04 22.3 °C 18.7 °C 1018.5 hPa NNE 10 km/h 7.2 km/h 80.4% 0 mm 770 W/m2
10:09 22.7 °C 19.1 °C 1018.5 hPa NNE 9.3 km/h 6.1 km/h 80% 0 mm 769 W/m2
10:14 23.1 °C 19.3 °C 1018.2 hPa NNE 10.8 km/h 14.5 km/h 79.1% 0 mm 744 W/m2
10:19 23.4 °C 19.2 °C 1018.2 hPa NNE 12.4 km/h 14.5 km/h 77.5% 0 mm 758 W/m2
10:24 23.3 °C 19.1 °C 1018.2 hPa NE 12.1 km/h 14.5 km/h 77.2% 0 mm 843 W/m2
10:29 23.6 °C 19.2 °C 1018.2 hPa NE 11.3 km/h 12.9 km/h 76.7% 0 mm 861 W/m2
10:34 23.9 °C 19.7 °C 1018.2 hPa NE 11.1 km/h 7.2 km/h 77% 0 mm 808 W/m2
10:39 24.3 °C 19.6 °C 1018.2 hPa NNE 8.7 km/h 7.9 km/h 74.9% 0 mm 732 W/m2
10:44 24.2 °C 19.2 °C 1018.2 hPa NNE 9.3 km/h 11.3 km/h 74.1% 0 mm 743 W/m2
10:49 24.2 °C 19.2 °C 1018.2 hPa ENE 10.6 km/h 11.3 km/h 73.8% 0 mm 615 W/m2
10:53 24.3 °C 19.3 °C 1017.8 hPa ENE 11.3 km/h 12.9 km/h 73.9% 0 mm 678 W/m2
10:59 24.3 °C 19.2 °C 1017.8 hPa ENE 7.6 km/h 12.9 km/h 73.4% 0 mm 749 W/m2
11:04 24.5 °C 19.6 °C 1017.8 hPa ENE 6.9 km/h 9.7 km/h 74.1% 0 mm 563 W/m2
11:09 24.9 °C 19.9 °C 1017.8 hPa NNE 5.8 km/h 8 km/h 74.2% 0 mm 453 W/m2
11:14 24.9 °C 19.7 °C 1017.8 hPa NNE 6 km/h 8 km/h 72.6% 0 mm 861 W/m2
11:19 25.2 °C 20.2 °C 1017.8 hPa SE 6.1 km/h 8 km/h 73.9% 0 mm 861 W/m2
11:24 25.6 °C 20.4 °C 1017.8 hPa SSW 6.8 km/h 9.7 km/h 73.3% 0 mm 802 W/m2
11:29 26.1 °C 20.7 °C 1017.8 hPa SW 6 km/h 8 km/h 72.3% 0 mm 759 W/m2
11:34 26.2 °C 20.5 °C 1017.8 hPa WSW 6.6 km/h 8 km/h 71.3% 0 mm 877 W/m2
11:39 26.2 °C 20.3 °C 1017.8 hPa SW 6.9 km/h 8 km/h 70.1% 0 mm 875 W/m2
11:44 26.4 °C 20.6 °C 1017.5 hPa WNW 9 km/h 9.7 km/h 70.4% 0 mm 720 W/m2
11:49 26.5 °C 20.5 °C 1017.5 hPa North 9 km/h 11.3 km/h 69.6% 0 mm 679 W/m2
11:54 26.7 °C 20.4 °C 1017.5 hPa NNE 9.3 km/h 9.7 km/h 68.8% 0 mm 749 W/m2
11:59 26.7 °C 20.1 °C 1017.5 hPa NE 10.9 km/h 7.6 km/h 67.2% 0 mm 636 W/m2
12:03 26.7 °C 20.3 °C 1017.5 hPa ENE 7.6 km/h 12.9 km/h 68% 0 mm 945 W/m2
12:09 27.1 °C 20.4 °C 1017.2 hPa ENE 11.9 km/h 11.3 km/h 67.2% 0 mm 1022 W/m2
12:14 27.4 °C 20.2 °C 1017.2 hPa ENE 10.8 km/h 16.1 km/h 64.9% 0 mm 1016 W/m2
12:19 27.7 °C 20 °C 1017.2 hPa ENE 8.2 km/h 12.9 km/h 62.9% 0 mm 995 W/m2
12:24 27.7 °C 19.6 °C 1017.2 hPa ENE 10.5 km/h 11.3 km/h 61.8% 0 mm 998 W/m2
12:29 27.8 °C 20.1 °C 1017.2 hPa ENE 14.6 km/h 16.1 km/h 62.8% 0 mm 1019 W/m2
12:34 27.9 °C 19.7 °C 1016.8 hPa NE 14 km/h 16.1 km/h 60.8% 0 mm 1002 W/m2
12:39 28.3 °C 20.1 °C 1016.8 hPa NE 11.9 km/h 3.5 km/h 61.2% 0 mm 989 W/m2
12:44 28.7 °C 20.1 °C 1016.8 hPa NNE 12.1 km/h 11.3 km/h 60% 0 mm 965 W/m2
12:49 28.8 °C 19.8 °C 1016.8 hPa NNE 15.4 km/h 14.5 km/h 58.3% 0 mm 1018 W/m2
12:54 28.9 °C 19.8 °C 1016.5 hPa North 15.3 km/h 20.9 km/h 58.1% 0 mm 970 W/m2
12:59 28.9 °C 19.7 °C 1016.5 hPa North 16.7 km/h 20.9 km/h 57.6% 0 mm 988 W/m2
13:03 29.1 °C 19.9 °C 1016.5 hPa NNE 15.4 km/h 19.3 km/h 57.9% 0 mm 934 W/m2
13:09 29.1 °C 19.6 °C 1016.5 hPa North 18.8 km/h 11.1 km/h 56.8% 0 mm 801 W/m2
13:14 28.5 °C 19.1 °C 1016.5 hPa NE 14.8 km/h 20.9 km/h 56.8% 0 mm 272 W/m2
13:19 28.1 °C 18.8 °C 1016.5 hPa ENE 11.3 km/h 5.8 km/h 57.3% 0 mm 250 W/m2
13:24 27.8 °C 18.5 °C 1016.5 hPa ENE 11.3 km/h 11.3 km/h 57% 0 mm 254 W/m2
13:27 27.7 °C 18.6 °C 1016.5 hPa ENE 9.2 km/h 14.5 km/h 57.6% 0 mm 261 W/m2
13:34 27.7 °C 18.6 °C 1016.5 hPa NNE 10.1 km/h 12.9 km/h 57.6% 0 mm 642 W/m2
13:39 28 °C 18.8 °C 1016.5 hPa NNE 9.7 km/h 11.3 km/h 57.3% 0 mm 1008 W/m2
13:44 28.7 °C 18.7 °C 1016.1 hPa NNE 11.9 km/h 11.3 km/h 54.9% 0 mm 964 W/m2
13:49 29.1 °C 18.5 °C 1016.1 hPa NNE 12.6 km/h 12.9 km/h 53.2% 0 mm 936 W/m2
13:54 29.1 °C 18.7 °C 1016.1 hPa NNE 11.9 km/h 16.1 km/h 53.5% 0 mm 909 W/m2
13:59 29.2 °C 18.3 °C 1016.1 hPa North 15.3 km/h 12.9 km/h 51.8% 0 mm 886 W/m2
14:04 29.3 °C 18.6 °C 1016.1 hPa North 11.1 km/h 7.6 km/h 52.3% 0 mm 883 W/m2
14:09 29.6 °C 18.7 °C 1016.1 hPa North 8 km/h 9.7 km/h 52.2% 0 mm 900 W/m2
14:14 29.7 °C 18.7 °C 1015.8 hPa North 7.2 km/h 11.3 km/h 51.5% 0 mm 916 W/m2
14:19 29.6 °C 18.4 °C 1015.8 hPa North 7.9 km/h 9.7 km/h 51% 0 mm 930 W/m2
14:24 29.9 °C 19 °C 1015.8 hPa North 12.6 km/h 10.8 km/h 52% 0 mm 375 W/m2
14:29 29.8 °C 18.5 °C 1015.8 hPa NNE 9.5 km/h 19.3 km/h 50.8% 0 mm 232 W/m2
14:34 29.4 °C 18.5 °C 1015.8 hPa NNE 8.5 km/h 12.9 km/h 52% 0 mm 324 W/m2
14:39 29.2 °C 18.7 °C 1015.5 hPa NNE 10.3 km/h 9.7 km/h 53.3% 0 mm 848 W/m2
14:44 29.4 °C 18.9 °C 1015.5 hPa NNE 7.7 km/h 12.9 km/h 53.2% 0 mm 828 W/m2
14:49 29.8 °C 18.6 °C 1015.5 hPa NNE 9.7 km/h 12.9 km/h 51% 0 mm 844 W/m2
14:54 29.6 °C 18.1 °C 1015.5 hPa ENE 16.3 km/h 9.7 km/h 50.1% 0 mm 867 W/m2
14:59 29.5 °C 18.6 °C 1015.5 hPa ENE 8.9 km/h 19.3 km/h 52% 0 mm 267 W/m2
15:04 29.2 °C 18.4 °C 1015.5 hPa NNE 9.5 km/h 9.7 km/h 52.4% 0 mm 791 W/m2
15:09 29.3 °C 18.7 °C 1015.5 hPa North 10.3 km/h 12.9 km/h 52.8% 0 mm 772 W/m2
15:14 29.7 °C 18.6 °C 1015.1 hPa NNW 10.9 km/h 16.1 km/h 51.4% 0 mm 758 W/m2
15:19 29.9 °C 18.6 °C 1015.5 hPa North 10.9 km/h 14.5 km/h 50.5% 0 mm 746 W/m2
15:24 30.1 °C 18.1 °C 1015.1 hPa NNE 9.8 km/h 11.3 km/h 48.9% 0 mm 745 W/m2
15:29 29.9 °C 18.1 °C 1015.1 hPa NE 13.8 km/h 16.1 km/h 49% 0 mm 744 W/m2
15:34 29.9 °C 18.2 °C 1015.1 hPa ENE 12.1 km/h 20.9 km/h 49.4% 0 mm 716 W/m2
15:39 30.2 °C 18.3 °C 1015.1 hPa NNE 11.3 km/h 12.9 km/h 49.1% 0 mm 701 W/m2
15:44 30.5 °C 18.7 °C 1015.1 hPa NNE 13.5 km/h 14.5 km/h 49.3% 0 mm 704 W/m2
15:49 30.7 °C 18.7 °C 1014.8 hPa NE 9.5 km/h 14.5 km/h 48.9% 0 mm 680 W/m2
15:54 30.8 °C 18.8 °C 1014.8 hPa NE 11.4 km/h 11.3 km/h 49% 0 mm 625 W/m2
15:59 30.8 °C 18.8 °C 1014.8 hPa North 11.6 km/h 14.5 km/h 48.9% 0 mm 623 W/m2
16:04 30.8 °C 18.7 °C 1014.8 hPa NNE 14 km/h 14.5 km/h 48.5% 0 mm 604 W/m2
16:09 30.8 °C 18.6 °C 1014.8 hPa NNE 14.2 km/h 14.5 km/h 48.3% 0 mm 596 W/m2
16:14 30.7 °C 18.6 °C 1014.8 hPa NNE 10.6 km/h 16.1 km/h 48.3% 0 mm 578 W/m2
16:19 30.8 °C 18.6 °C 1014.8 hPa NNE 12.2 km/h 12.9 km/h 48.3% 0 mm 574 W/m2
16:24 30.9 °C 18.7 °C 1014.8 hPa NNE 11.9 km/h 14.5 km/h 48.2% 0 mm 561 W/m2
16:29 30.8 °C 18.6 °C 1014.8 hPa ENE 11.3 km/h 5.5 km/h 48.3% 0 mm 550 W/m2
16:34 30.7 °C 18.3 °C 1014.8 hPa NE 14 km/h 12.9 km/h 47.9% 0 mm 572 W/m2
16:39 30.4 °C 18.3 °C 1014.8 hPa NNE 14 km/h 19.3 km/h 48.2% 0 mm 474 W/m2
16:44 30.1 °C 18.1 °C 1014.8 hPa NNE 9.8 km/h 19.3 km/h 48.7% 0 mm 155 W/m2
16:49 29.7 °C 17.8 °C 1014.8 hPa North 8.7 km/h 12.9 km/h 49% 0 mm 460 W/m2
16:54 29.7 °C 17.8 °C 1014.8 hPa NNW 9.7 km/h 12.9 km/h 49.1% 0 mm 451 W/m2
16:59 29.7 °C 17.7 °C 1014.8 hPa NNE 12.1 km/h 17.7 km/h 48.5% 0 mm 400 W/m2
17:04 29.8 °C 18.2 °C 1014.8 hPa NNE 10.1 km/h 4.7 km/h 49.9% 0 mm 394 W/m2
17:09 29.8 °C 18.1 °C 1014.4 hPa NNW 14 km/h 12.9 km/h 49.2% 0 mm 383 W/m2
17:14 29.8 °C 18 °C 1014.4 hPa North 13.4 km/h 17.7 km/h 49% 0 mm 351 W/m2
17:19 29.8 °C 18.3 °C 1014.4 hPa NNE 14.6 km/h 6.8 km/h 50% 0 mm 349 W/m2
17:24 29.7 °C 18.1 °C 1014.4 hPa NNE 8.4 km/h 12.9 km/h 49.8% 0 mm 324 W/m2
17:29 29.6 °C 18.2 °C 1014.4 hPa NNW 7.7 km/h 11.3 km/h 50.4% 0 mm 297 W/m2
17:33 29.6 °C 17.8 °C 1014.4 hPa NW 12.4 km/h 11.3 km/h 49.3% 0 mm 298 W/m2
17:39 29.5 °C 17.7 °C 1014.4 hPa NNE 13.5 km/h 16.1 km/h 49.3% 0 mm 290 W/m2
17:44 29.4 °C 17.6 °C 1014.4 hPa NE 11.9 km/h 14.5 km/h 49.2% 0 mm 248 W/m2
17:49 29.3 °C 17.6 °C 1014.4 hPa NE 12.6 km/h 19.3 km/h 49.3% 0 mm 211 W/m2
17:54 29.2 °C 17.6 °C 1014.4 hPa NNE 10.3 km/h 12.9 km/h 49.8% 0 mm 178 W/m2
17:59 29.1 °C 17.3 °C 1014.4 hPa North 12.4 km/h 17.7 km/h 49.2% 0 mm 178 W/m2
18:04 28.9 °C 17.3 °C 1014.4 hPa NNE 8 km/h 17.7 km/h 49.5% 0 mm 174 W/m2
18:09 28.8 °C 17.4 °C 1014.4 hPa NE 8.4 km/h 9.7 km/h 50.3% 0 mm 167 W/m2
18:14 28.8 °C 18.1 °C 1014.4 hPa NNW 7.2 km/h 11.3 km/h 52.3% 0 mm 161 W/m2
18:19 28.7 °C 17.7 °C 1014.4 hPa NW 9.8 km/h 9.7 km/h 51.5% 0 mm 139 W/m2
18:24 28.7 °C 17.6 °C 1014.4 hPa NNW 10.8 km/h 11.3 km/h 51.2% 0 mm 119 W/m2
18:29 28.5 °C 17.7 °C 1014.4 hPa NW 8.4 km/h 17.7 km/h 52% 0 mm 101 W/m2
18:34 28.3 °C 17.4 °C 1014.4 hPa NW 7.9 km/h 4.7 km/h 51.6% 0 mm 86 W/m2
18:39 28.2 °C 17.4 °C 1014.4 hPa NNW 4.5 km/h 9.7 km/h 52% 0 mm 72 W/m2
18:44 27.9 °C 17.3 °C 1014.4 hPa NNW 5.3 km/h 6.4 km/h 52.5% 0 mm 50 W/m2
18:49 27.8 °C 17.3 °C 1014.4 hPa NNW 8 km/h 6.4 km/h 53% 0 mm 39 W/m2
18:54 27.6 °C 17.2 °C 1014.8 hPa NNW 6.6 km/h 9.7 km/h 53.5% 0 mm 32 W/m2
18:59 27.3 °C 17.1 °C 1014.8 hPa NNW 7.6 km/h 8 km/h 53.7% 0 mm 26 W/m2
19:03 27.1 °C 17 °C 1014.8 hPa North 7.4 km/h 9.7 km/h 54% 0 mm 23 W/m2
19:09 26.9 °C 16.8 °C 1014.8 hPa NNW 6.9 km/h 9.7 km/h 54% 0 mm 19 W/m2
19:14 26.8 °C 16.9 °C 1014.8 hPa North 6.9 km/h 9.7 km/h 54.5% 0 mm 15 W/m2
19:19 26.7 °C 16.9 °C 1014.8 hPa North 8.9 km/h 8 km/h 55% 0 mm 12 W/m2
19:24 26.5 °C 16.7 °C 1014.8 hPa North 9.7 km/h 11.3 km/h 55% 0 mm 9 W/m2
19:29 26.3 °C 16.6 °C 1014.8 hPa North 8.4 km/h 11.3 km/h 55% 0 mm 8 W/m2
19:34 26.2 °C 16.5 °C 1014.8 hPa North 9.2 km/h 9.7 km/h 55% 0 mm 6 W/m2
19:39 26.1 °C 16.3 °C 1014.8 hPa North 9.3 km/h 11.3 km/h 55% 0 mm 4 W/m2
19:43 26 °C 16.3 °C 1014.8 hPa North 6.1 km/h 11.3 km/h 55% 0 mm 2 W/m2
19:49 25.8 °C 16.4 °C 1014.8 hPa North 4.7 km/h 8 km/h 56.2% 0 mm 1 W/m2
19:54 25.7 °C 16.6 °C 1014.8 hPa North 3.7 km/h 6.4 km/h 57% 0 mm 0 W/m2
19:59 25.6 °C 16.7 °C 1014.8 hPa NNE 0.5 km/h 4.8 km/h 57.7% 0 mm 0 W/m2
20:04 25.5 °C 16.8 °C 1014.8 hPa NNE 1.6 km/h 0.6 km/h 58.9% 0 mm 0 W/m2
20:08 25.3 °C 16.8 °C 1014.8 hPa North 1.4 km/h 1.6 km/h 59.2% 0 mm 0 W/m2
20:14 25.1 °C 16.9 °C 1014.8 hPa SW 4 km/h 3.2 km/h 60.7% 0 mm 0 W/m2
20:19 24.7 °C 16.9 °C 1014.8 hPa SSW 4.5 km/h 4.8 km/h 62% 0 mm 0 W/m2
20:24 24.4 °C 16.7 °C 1015.1 hPa South 5.3 km/h 4.8 km/h 61.7% 0 mm 0 W/m2
20:29 24.3 °C 16.8 °C 1015.1 hPa South 3.2 km/h 4.8 km/h 63.1% 0 mm 0 W/m2
20:34 24.1 °C 16.9 °C 1015.1 hPa SSW 2.9 km/h 3.2 km/h 64.1% 0 mm 0 W/m2
20:39 23.8 °C 16.9 °C 1015.1 hPa SSW 5.1 km/h 4.8 km/h 65% 0 mm 0 W/m2
20:44 23.5 °C 17.1 °C 1015.1 hPa SSW 4.5 km/h 4.3 km/h 67.1% 0 mm 0 W/m2
20:49 23.3 °C 16.9 °C 1015.5 hPa WSW 4.7 km/h 6.4 km/h 67.1% 0 mm 0 W/m2
20:54 23.2 °C 16.7 °C 1015.5 hPa West 4.7 km/h 4.8 km/h 67% 0 mm 0 W/m2
20:58 23.1 °C 16.6 °C 1015.5 hPa West 4.3 km/h 6.4 km/h 67% 0 mm 0 W/m2
Knjazevac, Serbia
Compliments of Weather Underground - 2 mb